Terminal Aerodrome Forecast
Issued by NWS

Home | Current Version | Previous Version | Text Only | Print | Product List | Glossary Off
Versions: 1 2 3 4 5 6 7 8 9 10 11 12 13 14 15 16 17 18 19 20 21 22 23 24 25 26 27 28 29 30 31 32 33 34 35 36 37 38

000
FTUS43 KLOT 021409 AAA
TAFORD
TAF AMD
KORD 021409Z 0214/0318 24012G21KT P6SM SCT250
     FM021600 23016G29KT P6SM SCT250
     FM022300 23017G26KT P6SM VCSH SCT080 BKN180
      TEMPO 0302/0304 3SM TSRA BKN040CB
     FM030500 28008KT P6SM BKN040 BKN100
     FM031100 31008KT P6SM SCT025
     FM031500 30011G17KT P6SM FEW030=

USA.gov is the U.S. government's official web portal to all federal, state and local government web resources and services.